createdAt,value
2018-12-17T00:01:36.572Z,25.50
2018-12-17T00:04:08.831Z,22.37
2018-12-17T00:06:41.100Z,22.77
2018-12-17T00:09:13.371Z,28.33
2018-12-17T00:11:45.655Z,21.27
2018-12-17T00:14:17.878Z,24.27
2018-12-17T00:16:50.167Z,24.87
2018-12-17T00:19:22.398Z,25.37
2018-12-17T00:21:54.684Z,23.27
2018-12-17T00:24:26.917Z,25.87
2018-12-17T00:26:59.221Z,28.43
2018-12-17T00:29:31.466Z,32.37
2018-12-17T00:32:03.754Z,24.63
2018-12-17T00:34:36.019Z,26.00
2018-12-17T00:37:08.308Z,27.70
2018-12-17T00:39:40.585Z,25.53
2018-12-17T00:42:12.834Z,26.23
2018-12-17T00:44:45.102Z,22.37
2018-12-17T00:47:17.348Z,22.47
2018-12-17T00:49:49.628Z,28.93
2018-12-17T00:52:21.879Z,30.03
2018-12-17T00:54:54.915Z,20.60
2018-12-17T00:57:27.149Z,21.13
2018-12-17T00:59:59.419Z,29.07
2018-12-17T01:02:31.653Z,29.53
2018-12-17T01:05:04.796Z,27.90
2018-12-17T01:07:37.071Z,28.30
2018-12-17T01:10:09.390Z,26.90
2018-12-17T01:12:41.629Z,25.07
2018-12-17T01:15:13.891Z,26.50
2018-12-17T01:17:46.147Z,30.80
2018-12-17T01:20:18.423Z,32.10
2018-12-17T01:22:50.748Z,30.83
2018-12-17T01:25:23.108Z,26.23
2018-12-17T01:27:55.345Z,26.37
2018-12-17T01:30:27.576Z,33.07
2018-12-17T01:32:59.812Z,32.90
2018-12-17T01:35:32.073Z,34.17
2018-12-17T01:38:04.291Z,35.07
2018-12-17T01:40:36.639Z,35.87
2018-12-17T01:43:08.881Z,35.97
2018-12-17T01:45:41.161Z,36.90
2018-12-17T01:48:13.436Z,28.87
2018-12-17T01:50:45.652Z,19.97
2018-12-17T01:53:17.935Z,39.60
2018-12-17T01:55:50.176Z,34.50
2018-12-17T01:58:29.032Z,28.83
2018-12-17T02:00:56.799Z,28.47
2018-12-17T02:03:29.094Z,25.77
2018-12-17T02:06:01.339Z,21.40
2018-12-17T02:08:33.596Z,23.47
2018-12-17T02:11:05.997Z,31.30
2018-12-17T02:13:38.500Z,31.17
2018-12-17T02:16:10.744Z,23.00
2018-12-17T02:18:43.001Z,23.07
2018-12-17T02:21:15.259Z,29.17
2018-12-17T02:23:47.454Z,25.50
2018-12-17T02:26:19.703Z,27.17
2018-12-17T02:28:51.920Z,25.53
2018-12-17T02:31:24.250Z,23.73
2018-12-17T02:33:56.471Z,33.67
2018-12-17T02:36:28.736Z,24.33
2018-12-17T02:39:01.139Z,31.93
2018-12-17T02:41:33.365Z,22.13
2018-12-17T02:44:05.782Z,36.87
2018-12-17T02:46:38.021Z,39.77
2018-12-17T02:49:10.673Z,25.10
2018-12-17T02:51:42.948Z,19.67
2018-12-17T02:54:15.159Z,27.23
2018-12-17T02:56:47.397Z,33.27
2018-12-17T02:59:19.620Z,27.43
2018-12-17T03:01:51.855Z,26.17
2018-12-17T03:04:24.123Z,35.57
2018-12-17T03:06:56.357Z,34.07
2018-12-17T03:09:28.694Z,31.73
2018-12-17T03:12:00.927Z,24.17
2018-12-17T03:14:33.159Z,27.30
2018-12-17T03:17:05.376Z,28.13
2018-12-17T03:19:37.619Z,25.40
2018-12-17T03:22:09.815Z,26.77
2018-12-17T03:24:42.134Z,27.87
2018-12-17T03:27:14.361Z,29.23
2018-12-17T03:29:46.666Z,28.53
2018-12-17T03:32:18.990Z,26.57
2018-12-17T03:34:51.323Z,30.57
2018-12-17T03:37:23.537Z,27.93
2018-12-17T03:39:55.779Z,27.40
2018-12-17T03:42:28.052Z,22.73
2018-12-17T03:45:00.295Z,30.03
2018-12-17T03:47:32.516Z,25.10
2018-12-17T03:50:05.539Z,24.53
2018-12-17T03:52:37.787Z,29.57
2018-12-17T03:55:09.991Z,24.40
2018-12-17T03:57:42.208Z,26.63
2018-12-17T04:00:14.430Z,28.27
2018-12-17T04:02:46.661Z,25.60
2018-12-17T04:05:18.875Z,22.10
2018-12-17T04:07:51.103Z,19.23
2018-12-17T04:10:23.344Z,25.13
2018-12-17T04:12:55.873Z,25.73
2018-12-17T04:15:28.396Z,22.80
2018-12-17T04:18:00.868Z,23.73
2018-12-17T04:20:33.324Z,21.73
2018-12-17T04:23:05.564Z,22.80
2018-12-17T04:25:37.758Z,21.10
2018-12-17T04:28:10.430Z,23.27
2018-12-17T04:30:42.655Z,24.67
2018-12-17T04:33:14.936Z,20.53
2018-12-17T04:35:47.267Z,22.73
2018-12-17T04:38:19.488Z,25.60
2018-12-17T04:40:51.936Z,18.47
2018-12-17T04:43:24.212Z,22.70
2018-12-17T04:45:56.464Z,21.90
2018-12-17T04:48:28.702Z,21.90
2018-12-17T04:51:00.949Z,24.87
2018-12-17T04:53:33.178Z,21.13
2018-12-17T04:56:05.417Z,20.97
2018-12-17T04:58:37.630Z,19.03
2018-12-17T05:01:16.561Z,22.73
2018-12-17T05:03:48.932Z,19.77
2018-12-17T05:06:21.144Z,25.70
2018-12-17T05:08:53.379Z,23.10
2018-12-17T05:11:25.581Z,21.77
2018-12-17T05:14:04.412Z,21.33
2018-12-17T05:16:36.644Z,21.07
2018-12-17T05:19:08.892Z,22.47
2018-12-17T05:21:41.170Z,25.47
2018-12-17T05:24:13.439Z,23.90
2018-12-17T05:26:45.676Z,18.27
2018-12-17T05:29:21.547Z,21.90
2018-12-17T05:31:52.207Z,21.23
2018-12-17T05:34:24.515Z,22.70
2018-12-17T05:36:56.710Z,22.30
2018-12-17T05:39:28.953Z,19.83
2018-12-17T05:42:01.387Z,20.63
2018-12-17T05:44:33.627Z,22.10
2018-12-17T05:47:05.836Z,23.30
2018-12-17T05:49:38.092Z,21.77
2018-12-17T05:52:10.323Z,20.37
2018-12-17T05:54:42.543Z,42.70
2018-12-17T05:57:14.759Z,34.83
2018-12-17T05:59:47.033Z,32.20
2018-12-17T06:02:19.283Z,29.67
2018-12-17T06:04:51.509Z,27.03
2018-12-17T06:07:24.013Z,21.87
2018-12-17T06:09:56.209Z,26.87
2018-12-17T06:12:28.437Z,32.77
2018-12-17T06:15:00.631Z,21.53
2018-12-17T06:20:11.926Z,29.33
2018-12-17T06:22:44.139Z,24.50
2018-12-17T06:25:17.356Z,26.03
2018-12-17T06:27:49.951Z,23.90
2018-12-17T06:30:22.175Z,19.77
2018-12-17T06:32:54.415Z,21.70
2018-12-17T06:35:26.631Z,20.97
2018-12-17T06:37:58.862Z,20.13
2018-12-17T06:40:31.107Z,18.13
2018-12-17T06:43:10.098Z,20.40
2018-12-17T06:45:42.363Z,19.60
2018-12-17T06:48:17.304Z,19.37
2018-12-17T06:50:48.847Z,21.60
2018-12-17T06:53:21.067Z,20.90
2018-12-17T06:55:53.281Z,17.90
2018-12-17T06:58:25.830Z,20.60
2018-12-17T07:00:58.003Z,17.63
2018-12-17T07:03:30.227Z,19.97
2018-12-17T07:06:02.482Z,19.30
2018-12-17T07:08:34.693Z,21.33
2018-12-17T07:11:06.908Z,17.80
2018-12-17T07:13:39.099Z,13.73
2018-12-17T07:16:11.943Z,13.43
2018-12-17T07:18:44.324Z,16.37
2018-12-17T07:21:16.610Z,15.03
2018-12-17T07:23:48.873Z,16.43
2018-12-17T07:26:21.088Z,15.13
2018-12-17T07:28:53.464Z,17.27
2018-12-17T07:31:25.663Z,18.50
2018-12-17T07:33:57.919Z,17.40
2018-12-17T07:36:30.133Z,15.53
2018-12-17T07:39:03.276Z,16.93
2018-12-17T07:41:36.231Z,17.73
2018-12-17T07:44:08.511Z,17.87
2018-12-17T07:46:40.724Z,18.23
2018-12-17T07:49:12.955Z,15.27
2018-12-17T07:51:45.168Z,14.00
2018-12-17T07:54:17.446Z,14.00
2018-12-17T07:56:49.644Z,16.10
2018-12-17T07:59:21.888Z,16.60
2018-12-17T08:01:54.144Z,16.07
2018-12-17T08:04:26.366Z,17.57
2018-12-17T08:06:58.597Z,18.63
2018-12-17T08:09:30.843Z,18.43
2018-12-17T08:12:03.099Z,17.80
2018-12-17T08:14:35.385Z,19.87
2018-12-17T08:17:07.800Z,18.87
2018-12-17T08:19:40.028Z,17.33
2018-12-17T08:22:12.247Z,22.10
2018-12-17T08:24:44.470Z,17.00
2018-12-17T08:27:16.735Z,22.57
2018-12-17T08:29:48.969Z,18.10
2018-12-17T08:32:21.187Z,21.70
2018-12-17T08:34:53.431Z,20.40
2018-12-17T08:37:25.680Z,19.93
2018-12-17T08:39:57.919Z,20.20
2018-12-17T08:42:30.149Z,19.23
2018-12-17T08:45:02.444Z,20.67
2018-12-17T08:47:34.854Z,20.00
2018-12-17T08:50:07.264Z,19.93
2018-12-17T08:52:39.506Z,17.00
2018-12-17T08:55:11.707Z,18.60
2018-12-17T08:57:43.963Z,20.33
2018-12-17T09:00:16.228Z,18.67
2018-12-17T09:02:48.474Z,22.23
2018-12-17T09:05:20.743Z,17.73
2018-12-17T09:07:53.099Z,21.17
2018-12-17T09:10:25.340Z,19.90
2018-12-17T09:12:57.642Z,21.37
2018-12-17T09:15:29.857Z,17.93
2018-12-17T09:18:02.108Z,20.53
2018-12-17T09:20:34.447Z,18.37
2018-12-17T09:23:06.707Z,20.10
2018-12-17T09:25:38.928Z,20.73
2018-12-17T09:28:11.185Z,18.83
2018-12-17T09:30:43.515Z,18.83
2018-12-17T09:33:15.838Z,19.53
2018-12-17T09:35:48.107Z,20.80
2018-12-17T09:38:20.381Z,20.83
2018-12-17T09:40:52.612Z,20.63
2018-12-17T09:43:24.891Z,22.00
2018-12-17T09:45:57.198Z,21.03
2018-12-17T09:48:29.504Z,19.83
2018-12-17T09:51:01.760Z,21.40
2018-12-17T09:53:34.019Z,20.73
2018-12-17T09:56:06.319Z,19.13
2018-12-17T09:58:38.972Z,22.97
2018-12-17T10:01:11.224Z,23.40
2018-12-17T10:03:43.501Z,21.90
2018-12-17T10:06:16.015Z,20.53
2018-12-17T10:08:48.249Z,17.80
2018-12-17T10:11:20.497Z,21.67
2018-12-17T10:13:52.732Z,20.33
2018-12-17T10:16:25.008Z,20.90
2018-12-17T10:18:57.255Z,16.53
2018-12-17T10:21:29.584Z,18.87
2018-12-17T10:24:02.069Z,19.03
2018-12-17T10:26:34.660Z,18.37
2018-12-17T10:29:06.992Z,18.80
2018-12-17T10:31:39.239Z,19.20
2018-12-17T10:34:11.484Z,19.30
2018-12-17T10:36:43.760Z,19.27
2018-12-17T10:39:16.017Z,19.90
2018-12-17T10:41:48.313Z,20.67
2018-12-17T10:44:20.579Z,21.17
2018-12-17T10:46:52.975Z,20.00
2018-12-17T10:49:25.238Z,17.10
2018-12-17T10:51:57.502Z,17.27
2018-12-17T10:54:29.732Z,18.23
2018-12-17T10:57:01.973Z,17.83
2018-12-17T10:59:34.244Z,18.60
2018-12-17T11:02:13.085Z,14.73
2018-12-17T11:04:49.809Z,15.47
2018-12-17T11:07:22.080Z,17.73
2018-12-17T11:09:54.352Z,18.67
2018-12-17T11:12:26.611Z,20.00
2018-12-17T11:14:58.848Z,21.23
2018-12-17T11:17:31.112Z,21.60
2018-12-17T11:20:04.128Z,20.23
2018-12-17T11:22:36.368Z,19.70
2018-12-17T11:25:08.608Z,20.97
2018-12-17T11:27:40.852Z,23.40
2018-12-17T11:30:13.111Z,29.47
2018-12-17T11:32:45.382Z,24.80
2018-12-17T11:35:17.587Z,25.80
2018-12-17T11:37:49.868Z,20.67
2018-12-17T11:40:22.091Z,22.10
2018-12-17T11:42:54.339Z,20.40
2018-12-17T11:45:26.917Z,19.73
2018-12-17T11:47:59.227Z,18.93
2018-12-17T11:50:31.469Z,17.00
2018-12-17T11:53:03.865Z,17.13
2018-12-17T11:55:36.220Z,18.90
2018-12-17T11:58:10.905Z,16.03
2018-12-17T12:00:53.669Z,13.10
2018-12-17T12:03:23.688Z,15.00
2018-12-17T12:05:55.959Z,16.30
2018-12-17T12:08:28.272Z,13.97
2018-12-17T12:11:00.564Z,16.17
2018-12-17T12:13:32.852Z,14.23
2018-12-17T12:16:05.084Z,14.23
2018-12-17T12:18:37.419Z,15.10
2018-12-17T12:21:09.666Z,13.17
2018-12-17T12:23:41.930Z,13.37
2018-12-17T12:26:14.196Z,12.17
2018-12-17T12:28:46.452Z,15.43
2018-12-17T12:31:18.686Z,12.40
2018-12-17T12:33:50.937Z,11.83
2018-12-17T12:36:23.167Z,13.53
2018-12-17T12:38:55.513Z,12.80
2018-12-17T12:41:27.811Z,11.20
2018-12-17T12:44:00.053Z,13.43
2018-12-17T12:46:32.337Z,11.43
2018-12-17T12:49:04.625Z,11.53
2018-12-17T12:51:36.959Z,10.40
2018-12-17T12:54:09.276Z,9.80
2018-12-17T12:56:41.562Z,9.73
2018-12-17T12:59:13.853Z,9.60
2018-12-17T13:01:46.151Z,10.83
2018-12-17T13:04:18.399Z,12.27
2018-12-17T13:06:50.676Z,9.90
2018-12-17T13:09:22.988Z,10.00
2018-12-17T13:11:55.279Z,10.80
2018-12-17T13:14:27.566Z,9.03
2018-12-17T13:17:04.400Z,12.37
2018-12-17T13:19:36.886Z,13.47
2018-12-17T13:22:09.119Z,15.93
2018-12-17T13:24:41.375Z,15.33
2018-12-17T13:27:13.657Z,13.20
2018-12-17T13:29:46.137Z,11.70
2018-12-17T13:32:18.959Z,11.13
2018-12-17T13:34:51.207Z,11.50
2018-12-17T13:37:23.683Z,11.47
2018-12-17T13:39:55.945Z,12.80
2018-12-17T13:42:28.205Z,12.60
2018-12-17T13:45:01.160Z,14.13
2018-12-17T13:47:33.476Z,12.53
2018-12-17T13:50:11.457Z,13.33
2018-12-17T13:52:46.198Z,13.77
2018-12-17T13:55:18.483Z,14.13
2018-12-17T13:57:50.788Z,12.97
2018-12-17T14:00:23.051Z,12.93
2018-12-17T14:02:55.357Z,11.67
2018-12-17T14:05:27.617Z,12.03
2018-12-17T14:07:59.916Z,17.27
2018-12-17T14:10:37.915Z,16.23
2018-12-17T14:13:10.183Z,13.07
2018-12-17T14:15:48.112Z,10.33
2018-12-17T14:18:26.060Z,11.83
2018-12-17T14:21:04.241Z,12.70
2018-12-17T14:23:36.641Z,12.40
2018-12-17T14:26:08.949Z,12.63
2018-12-17T14:28:41.260Z,15.70
2018-12-17T14:31:13.576Z,12.53
2018-12-17T14:33:45.863Z,12.37
2018-12-17T14:36:18.153Z,12.83
2018-12-17T14:38:50.444Z,12.87
2018-12-17T14:41:22.693Z,11.57
2018-12-17T14:43:59.584Z,11.40
2018-12-17T14:46:36.385Z,12.53
2018-12-17T14:49:08.655Z,10.10
2018-12-17T14:51:40.918Z,11.03
2018-12-17T14:54:13.266Z,14.50
2018-12-17T14:56:45.590Z,13.43
2018-12-17T14:59:17.820Z,22.97
2018-12-17T15:01:50.129Z,41.33
2018-12-17T15:04:22.428Z,18.07
2018-12-17T15:06:54.720Z,20.53
2018-12-17T15:09:27.080Z,49.23
2018-12-17T15:11:59.387Z,36.50
2018-12-17T15:14:31.713Z,30.40
2018-12-17T15:17:04.049Z,26.63
2018-12-17T15:19:36.329Z,27.87
2018-12-17T15:22:08.624Z,28.30
2018-12-17T15:24:41.017Z,19.83
2018-12-17T15:27:13.409Z,16.90
2018-12-17T15:29:45.678Z,17.00
2018-12-17T15:32:18.037Z,14.67
2018-12-17T15:34:50.283Z,15.70
2018-12-17T15:37:22.705Z,15.60
2018-12-17T15:39:54.975Z,15.50
2018-12-17T15:42:27.269Z,16.97
2018-12-17T15:45:00.525Z,16.93
2018-12-17T15:47:32.879Z,17.13
2018-12-17T15:50:05.280Z,14.93
2018-12-17T15:52:37.599Z,12.60
2018-12-17T15:55:09.961Z,17.67
2018-12-17T15:57:42.276Z,17.80
2018-12-17T16:00:14.566Z,12.50
2018-12-17T16:02:46.881Z,17.53
2018-12-17T16:05:20.160Z,15.43
2018-12-17T16:07:52.468Z,13.87
2018-12-17T16:10:24.717Z,12.70
2018-12-17T16:12:57.036Z,15.53
2018-12-17T16:15:29.309Z,18.90
2018-12-17T16:18:01.586Z,12.20
2018-12-17T16:20:33.970Z,15.73
2018-12-17T16:23:06.254Z,15.27
2018-12-17T16:25:38.600Z,16.37
2018-12-17T16:28:10.901Z,17.97
2018-12-17T16:30:43.243Z,33.70
2018-12-17T16:33:15.577Z,28.80
2018-12-17T16:35:47.909Z,26.53
2018-12-17T16:38:20.211Z,25.33
2018-12-17T16:40:52.544Z,21.07
2018-12-17T16:43:24.844Z,19.17
2018-12-17T16:45:57.189Z,19.40
2018-12-17T16:48:29.437Z,20.27
2018-12-17T16:51:01.793Z,38.57
2018-12-17T16:53:34.149Z,28.97
2018-12-17T16:56:06.564Z,24.20
2018-12-17T16:58:38.892Z,25.37
2018-12-17T17:01:11.267Z,21.83
2018-12-17T17:03:43.548Z,20.07
2018-12-17T17:06:15.955Z,20.00
2018-12-17T17:08:48.304Z,17.70
2018-12-17T17:11:20.671Z,18.53
2018-12-17T17:13:52.991Z,20.03
2018-12-17T17:16:25.526Z,18.60
2018-12-17T17:18:57.896Z,16.73
2018-12-17T17:21:30.196Z,19.30
2018-12-17T17:24:02.516Z,16.03
2018-12-17T17:26:34.806Z,19.13
2018-12-17T17:29:07.146Z,21.10
2018-12-17T17:31:39.521Z,21.00
2018-12-17T17:34:11.935Z,39.13
2018-12-17T17:36:44.269Z,20.60
2018-12-17T17:39:16.619Z,17.97
2018-12-17T17:41:48.947Z,15.40
2018-12-17T17:44:21.380Z,12.87
2018-12-17T17:46:53.663Z,12.70
2018-12-17T17:49:26.031Z,14.13
2018-12-17T17:51:58.340Z,14.70
2018-12-17T17:54:30.668Z,17.33
2018-12-17T17:57:03.013Z,16.20
2018-12-17T17:59:35.338Z,15.83
2018-12-17T18:02:07.413Z,17.87
2018-12-17T18:04:39.756Z,14.53
2018-12-17T18:07:12.148Z,21.07
2018-12-17T18:09:44.607Z,24.50
2018-12-17T18:12:17.009Z,22.07
2018-12-17T18:14:49.381Z,14.50
2018-12-17T18:17:21.686Z,16.83
2018-12-17T18:19:54.078Z,27.87
2018-12-17T18:22:26.418Z,18.17
2018-12-17T18:24:58.815Z,20.63
2018-12-17T18:30:29.390Z,20.00
2018-12-17T18:33:01.773Z,18.83
2018-12-17T18:35:34.211Z,24.77
2018-12-17T18:38:06.553Z,22.53
2018-12-17T18:40:39.083Z,24.87
2018-12-17T18:43:11.494Z,32.60
2018-12-17T18:45:44.062Z,28.50
2018-12-17T18:48:16.502Z,19.50
2018-12-17T18:50:48.935Z,22.07
2018-12-17T18:53:21.328Z,28.47
2018-12-17T18:55:53.960Z,24.40
2018-12-17T18:58:26.385Z,23.87
2018-12-17T19:00:58.962Z,22.87
2018-12-17T19:03:31.325Z,25.97
2018-12-17T19:06:04.096Z,21.90
2018-12-17T19:08:36.504Z,22.37
2018-12-17T19:11:08.922Z,19.83
2018-12-17T19:13:41.444Z,20.87
2018-12-17T19:16:13.824Z,18.73
2018-12-17T19:18:46.264Z,20.77
2018-12-17T19:21:18.732Z,22.97
2018-12-17T19:23:51.092Z,24.60
2018-12-17T19:26:23.580Z,30.67
2018-12-17T19:28:56.013Z,29.77
2018-12-17T19:31:34.396Z,24.10
2018-12-17T19:34:02.765Z,24.23
2018-12-17T19:36:35.313Z,32.30
2018-12-17T19:39:08.215Z,30.40
2018-12-17T19:41:40.617Z,29.47
2018-12-17T19:44:13.130Z,25.07
2018-12-17T19:46:45.512Z,24.80
2018-12-17T19:49:17.900Z,22.27
2018-12-17T19:51:50.280Z,18.10
2018-12-17T19:54:22.846Z,18.20
2018-12-17T19:56:55.396Z,19.57
2018-12-17T19:59:27.948Z,18.10
2018-12-17T20:02:00.428Z,20.93
2018-12-17T20:04:33.090Z,21.50
2018-12-17T20:07:05.492Z,22.77
2018-12-17T20:09:38.026Z,23.37
2018-12-17T20:12:10.414Z,25.53
2018-12-17T20:14:43.158Z,27.70
2018-12-17T20:17:15.562Z,24.40
2018-12-17T20:19:48.027Z,18.13
2018-12-17T20:22:20.567Z,18.10
2018-12-17T20:24:53.079Z,16.17
2018-12-17T20:27:25.447Z,12.57
2018-12-17T20:29:57.950Z,15.97
2018-12-17T20:32:30.468Z,19.87
2018-12-17T20:35:02.983Z,22.43
2018-12-17T20:37:35.404Z,18.03
2018-12-17T20:40:09.026Z,18.63
2018-12-17T20:42:41.517Z,14.67
2018-12-17T20:45:14.052Z,14.37
2018-12-17T20:47:46.489Z,13.30
2018-12-17T20:50:18.900Z,15.27
2018-12-17T20:52:51.306Z,13.67
2018-12-17T20:55:30.351Z,13.63
2018-12-17T20:57:58.927Z,12.70
2018-12-17T21:00:31.566Z,13.73
2018-12-17T21:03:04.005Z,14.20
2018-12-17T21:05:36.449Z,11.97
2018-12-17T21:08:08.845Z,12.63
2018-12-17T21:10:41.217Z,13.57
2018-12-17T21:13:13.613Z,13.63
2018-12-17T21:15:46.874Z,10.17
2018-12-17T21:18:19.329Z,14.57
2018-12-17T21:20:51.710Z,15.47
2018-12-17T21:23:24.075Z,13.00
2018-12-17T21:25:56.359Z,11.90
2018-12-17T21:28:28.692Z,11.20
2018-12-17T21:31:01.029Z,11.07
2018-12-17T21:33:33.409Z,13.20
2018-12-17T21:36:05.741Z,13.53
2018-12-17T21:38:38.042Z,14.83
2018-12-17T21:41:10.453Z,17.83
2018-12-17T21:43:42.784Z,15.13
2018-12-17T21:46:15.141Z,12.87
2018-12-17T21:48:47.450Z,13.23
2018-12-17T21:51:19.708Z,13.00
2018-12-17T21:53:52.132Z,12.20
2018-12-17T21:56:24.409Z,14.80
2018-12-17T21:58:56.741Z,16.90
2018-12-17T22:01:29.032Z,15.60
2018-12-17T22:04:01.410Z,14.27
2018-12-17T22:06:33.862Z,16.43
2018-12-17T22:09:07.051Z,13.47
2018-12-17T22:11:39.382Z,10.57
2018-12-17T22:14:11.756Z,12.87
2018-12-17T22:16:44.116Z,12.97
2018-12-17T22:19:16.364Z,10.10
2018-12-17T22:21:48.620Z,10.97
2018-12-17T22:24:20.914Z,12.27
2018-12-17T22:26:53.193Z,9.73
2018-12-17T22:29:25.551Z,11.40
2018-12-17T22:31:57.914Z,10.53
2018-12-17T22:34:30.220Z,9.60
2018-12-17T22:37:02.630Z,14.30
2018-12-17T22:39:34.911Z,14.47
2018-12-17T22:42:07.208Z,12.00
2018-12-17T22:44:39.731Z,10.63
2018-12-17T22:47:12.032Z,8.83
2018-12-17T22:49:44.335Z,10.33
2018-12-17T22:52:16.657Z,11.43
2018-12-17T22:54:49.011Z,12.33
2018-12-17T22:57:21.302Z,13.23
2018-12-17T22:59:53.583Z,11.03
2018-12-17T23:02:25.862Z,12.07
2018-12-17T23:04:58.157Z,13.10
2018-12-17T23:07:30.429Z,11.27
2018-12-17T23:10:14.211Z,11.60
2018-12-17T23:12:57.964Z,14.97
2018-12-17T23:15:41.581Z,12.03
2018-12-17T23:18:14.259Z,11.87
2018-12-17T23:20:46.782Z,12.63
2018-12-17T23:23:19.133Z,12.47
2018-12-17T23:25:51.404Z,10.60
2018-12-17T23:28:23.663Z,10.93
2018-12-17T23:30:55.942Z,11.37
2018-12-17T23:33:32.778Z,10.40
2018-12-17T23:36:02.615Z,9.67
2018-12-17T23:38:35.020Z,10.87
2018-12-17T23:41:07.334Z,11.20
2018-12-17T23:43:39.579Z,10.33
2018-12-17T23:46:11.987Z,9.10
2018-12-17T23:48:44.271Z,12.33
2018-12-17T23:51:16.613Z,11.40
2018-12-17T23:53:48.891Z,11.93
2018-12-17T23:56:21.185Z,11.23
2018-12-17T23:58:53.468Z,12.43
